NTAA/PPT METAR and TAF weather

Enter ICAO airport designator
Station Type Date Time Source
NTAA METAR 2020/07/02 22:30 UTC NOAA

NTAA 022230Z 07016KT 9999 FEW026 30/23 Q1013 NOSIG


Station Type Date Time Source
NTAA Decoded METAR 2020/07/02 22:30 UTC NOAA

Tahiti-Faaa, French Polynesia (NTAA) 17-33S 149-37W 2M
Jul 02, 2020 - 06:30 PM EDT / 2020.07.02 2230 UTC
Wind: from the ENE (070 degrees) at 18 MPH (16 KT):0
Visibility: greater than 7 mile(s):0
Sky conditions: mostly clear
Temperature: 86 F (30 C)
Heat index: 93.4 F (34.1 C):1
Dew Point: 73 F (23 C)
Relative Humidity: 66%
Pressure (altimeter): 29.91 in. Hg (1013 hPa)
ob: NTAA 022230Z 07016KT 9999 FEW026 30/23 Q1013 NOSIG
cycle: 22

Station Type Date Time Source
NTAA TAF 2020/07/02 18:42 UTC NOAA

TAF TAF NTAA 021700Z 0218/0324 06015G25KT 9999 FEW020 SCT060 PROB40
TEMPO 0312/0324 4000 SHRA BKN014 BKN050

Example: see airport list